hawking.org.uk alexa rank chart, hawking.org.uk alexa rank daily changes

hawking.org.uk alexa rank chart, hawking.org.uk alexa rank daily changes

hawking.org.uk
Actual rank:
165 844

RANK HISTORY

Date Rank Diff
2017/12/09 165 844 +2 981
2017/12/08 162 863 +2 455
2017/12/07 160 408 +2 970
2017/12/06 157 438 +2 785
2017/12/05 154 653 -2 867
2017/12/04 157 520 +1 424
2017/12/03 156 096 +630
2017/12/02 155 466 +103
2017/12/01 155 363 +2 529
2017/11/30 152 834 +2 538
2017/11/29 150 296 +3 816
2017/11/28 146 480 -1 741
2017/11/27 148 221 +2 764
2017/11/26 145 457 +12 367
2017/11/25 133 090 +1 671
2017/11/24 131 419 +95
2017/11/23 131 324 +478
2017/11/22 130 846 -24
2017/11/21 130 870 +101
2017/11/20 130 769 -838
2017/11/19 131 607 -217
2017/11/18 131 824 +1 111
2017/11/17 130 713 -853
2017/11/16 131 566 +42
2017/11/15 131 524 -214
2017/11/14 131 738 -1 278
2017/11/13 133 016 +1 917
2017/11/12 131 099 +569
2017/11/11 130 530 -2 142
2017/11/10 132 672 -4 052
2017/11/09 136 724 -1 567
2017/11/08 138 291 -2 115
2017/11/07 140 406 -2 112
2017/11/06 142 518 -2 748
2017/11/05 145 266 +713
2017/11/04 144 553 -208
2017/11/03 144 761 +392
2017/11/02 144 369 +321
2017/11/01 144 048 +528
2017/10/31 143 520 +315
2017/10/30 143 205 -2 255
2017/10/29 145 460 -1 463
2017/10/28 146 923 -1 180
2017/10/27 148 103 -4 852
2017/10/26 152 955 -19 308
2017/10/25 172 263 -250
2017/10/24 172 513 -2 606
2017/10/23 175 119 -2 323
2017/10/22 177 442 +324
2017/10/21 177 118 -1 087
2017/10/20 178 205 -3 221
2017/10/19 181 426 -410
2017/10/18 181 836 -4 062
2017/10/17 185 898 +1 112
2017/10/16 184 786 -4 795
2017/10/14 189 581 +1 980
2017/10/13 187 601 -3 954
2017/10/12 191 555 -3 662
2017/10/11 195 217 +2 317
2017/10/10 192 900

WIDGET FOR YOUR SITE

DOMAINS WITH THE NEAREST RANK

Domain Rank
azerinfo.az 165 839
worldwidewords.org 165 840
pvcc.edu 165 841
futurezone.de 165 842
vuematerial.io 165 843
hawking.org.uk 165 844
billionuploads.com 165 845
ldschurchtemples.org 165 846
iotaprice.com 165 847
planfor.fr 165 848
ingestedgifts.party 165 849

DOMAINS WITH THE NEAREST RANK BY TLD .org.uk

Domain Rank
name-generator.org.uk 157 243
mentalhealth.org.uk 159 686
roundhouse.org.uk 161 824
cats.org.uk 162 149
worksmart.org.uk 165 033
hawking.org.uk 165 844
ehic.org.uk 166 547
peta.org.uk 168 281
managers.org.uk 168 900
hopenothate.org.uk 169 265
rcn.org.uk 170 426